This is the latest recevied weather packets stored in our database for station/object N3WR. If no packets are shown the sender has not sent any weather packets the latest 1 day(s).
| Time | Temp. | Humidity | Pressure | Rain* | Wind** | Luminosity | Snow |
|---|---|---|---|---|---|---|---|
| 1778007599 | 26.67° C | 42% | 1007.5 hPa | 0 mm | 4.02 m/s, 269° | - | - |
| 1778006697 | 26.11° C | 42% | 1007.7 hPa | 0 mm | 5.36 m/s, 219° | - | - |
| 1778005798 | 26.11° C | 43% | 1007.8 hPa | 0 mm | 4.02 m/s, 186° | - | - |
| 1778004900 | 26.11° C | 44% | 1008.2 hPa | 0 mm | 4.47 m/s, 203° | - | - |
| 1778003999 | 25.56° C | 45% | 1008.1 hPa | 0 mm | 4.47 m/s, 202° | - | - |
| 1778003097 | 26.11° C | 46% | 1008.2 hPa | 0 mm | 3.58 m/s, 209° | - | - |
| 1778002198 | 25.56° C | 47% | 1008.2 hPa | 0 mm | 4.02 m/s, 205° | - | - |
| 1778001298 | 25.56° C | 47% | 1008.5 hPa | 0 mm | 4.47 m/s, 180° | - | - |
| 1778000399 | 25° C | 54% | 1008.5 hPa | 0 mm | 3.13 m/s, 208° | - | - |
| 1777999498 | 25° C | 54% | 1008.8 hPa | 0 mm | 3.58 m/s, 278° | - | - |
| 1777998598 | 24.44° C | 53% | 1009.1 hPa | 0 mm | 3.58 m/s, 178° | - | - |
| 1777997698 | 23.89° C | 55% | 1009.4 hPa | 0 mm | 3.13 m/s, 238° | - | - |
| 1777996801 | 23.33° C | 57% | 1009.3 hPa | 0 mm | 3.58 m/s, 169° | - | - |
| 1777995900 | 22.78° C | 59% | 1009.6 hPa | 0 mm | 3.58 m/s, 185° | - | - |
| 1777994997 | 22.78° C | 61% | 1009.7 hPa | 0 mm | 2.24 m/s, 263° | - | - |
| 1777994100 | 22.22° C | 61% | 1009.6 hPa | 0 mm | 2.68 m/s, 248° | - | - |
| 1777993199 | 21.67° C | 65% | 1010 hPa | 0 mm | 1.79 m/s, 259° | - | - |
| 1777992298 | 21.11° C | 65% | 1010 hPa | 0 mm | 2.24 m/s, 225° | - | - |
| 1777991400 | 20.56° C | 64% | 1010.3 hPa | 0 mm | 3.13 m/s, 209° | - | - |
| 1777990499 | 20° C | 66% | 1010.2 hPa | 0 mm | 2.68 m/s, 182° | - | - |
| 1777989603 | 19.44° C | 69% | 1010.3 hPa | 0 mm | 2.24 m/s, 268° | - | - |
| 1777988700 | 18.89° C | 70% | 1010.3 hPa | 0 mm | 2.24 m/s, 178° | - | - |
| 1777987798 | 18.33° C | 71% | 1010.7 hPa | 0 mm | 3.13 m/s, 224° | - | - |
| 1777986897 | 17.78° C | 73% | 1010.7 hPa | 0 mm | 2.68 m/s, 187° | - | - |
| 1777986000 | 17.22° C | 76% | 1010.6 hPa | 0 mm | 1.79 m/s, 213° | - | - |
* Rain latest hour (hover to see other rain measurements)
** Current wind speed in m/s (hover to see current wind gust speed)